KTPH/TPH METAR and TAF weather

Enter ICAO airport designator
Station Type Date Time Source
KTPH METAR 2019/12/07 04:56 UTC NOAA

KTPH 070456Z AUTO 13011KT 10SM OVC019 03/01 A3017 RMK AO2 SLP220 T00330011 $


Station Type Date Time Source
KTPH Decoded METAR 2019/12/07 04:56 UTC NOAA

TONOPAH AIRPORT, NV, United States (KTPH) 38-02N 117-05W 1652M
Dec 06, 2019 - 11:56 PM EST / 2019.12.07 0456 UTC
Wind: from the SE (130 degrees) at 13 MPH (11 KT):0
Visibility: 10 mile(s):0
Sky conditions: overcast
Temperature: 37.9 F (3.3 C)
Dew Point: 34.0 F (1.1 C)
Relative Humidity: 85%
Pressure (altimeter): 30.17 in. Hg (1021 hPa)
ob: KTPH 070456Z AUTO 13011KT 10SM OVC019 03/01 A3017 RMK AO2 SLP220 T00330011
cycle: 5

Station Type Date Time Source
KTPH TAF 2019/12/06 22:10 UTC NOAA

TAF
AMD KTPH 062207Z 0622/0718 36004KT P6SM SCT029
FM062300 14007KT P6SM SCT070
FM070600 13007KT P6SM BKN060
FM071200 13006KT P6SM OVC050

Example: see airport list